Dixon, CA (95620)

9:17 PM PST on February 28, 2015 (GMT -0800)
KCADIXON2 | Change Station
CLOSE
Current Station
Personal Weather Station
Location: Dixon, CA
Elevation: 62 ft
Nearby Weather Stations
Active Advisory: Hydrologic Statement

Elev 62 ft 38.45 °N, 121.84 °W | Updated 50 minutes ago

Partly Cloudy
Partly Cloudy
51.1 °F
Feels Like 51.1 °F
N
0.0
Wind Variable Wind from NE
Gusts 0.0 mph

Today
High -- | Low -- °F
--% Chance of Precip.
Yesterday
High -- | Low -- °F
Precip. -- in
6:40 AM 5:59 PM
Waxing Gibbous, 82% visible
Pressure 29.89 in
Visibility 10.0 miles
Clouds Few 6500 ft
Dew Point 43 °F
Humidity 74%
Rainfall 0.00 in
Snow Depth Not available.
UV 0 out of 12
Pollen 4.80 out of 12
Air Quality Not available.
Flu Activity Not available.
METAR KEDU 010455Z AUTO 00000KT 10SM FEW065 09/05 A2989 RMK AO1

More Conditions Fewer Conditions

Pressure 29.89 in
Visibility 10.0 miles
Clouds Few 6500 ft
Dew Point 43 °F
Humidity 74%
Rainfall 0.00 in
Snow Depth Not available.
UV 0 out of 12
Pollen 4.80 out of 12
Air Quality Not available.
Flu Activity Not available.
METAR KEDU 010455Z AUTO 00000KT 10SM FEW065 09/05 A2989 RMK AO1

More Conditions Fewer Conditions

10-Day Weather Forecast

Almanac

Astronomy

Feb. 28, 2015 Rise Set
Actual Time
Civil Twilight
Nautical Twilight
Astronomical Twilight
Moon
Length of Visible Light
Length of Day
Tomorrow will be .
, % of the Moon is Illuminated

Today's Extremes

State Highs State Lows

Community

WunderPhotos

Upload Photos

1,801,319 photos uploaded!

WunderBlogs® & News

Nearby

Air Quality

  Air Quality AQ Index Pollutant
Not available.

Snow Depth

Station Depth Elevation

Earthquake Activity

City Distance Mag. Time & Date
Minimum magnitude displayed is 2.5.

Coastal Water Temperatures

Place Temperature

Nearby Weather Stations

Hydrologic Statement
Statement as of 11:58 AM PST on February 28, 2015

Forecast information for
Sacramento River at Colusa bridge.
* At 11:45 am Saturday the stage was 41.9 feet.
* Forecast to fluctuate near 42.0 ft thru near Monday noon.
* Flood stage 70.0 ft
* monitor stage 63.0 ft


&&

Lat... Lon 3923 12214 3922 12188 3907 12180 3905 12196
      3922 12204